Time;durP1;ratioP1;P1;durP2;ratioP2;P2;SDS_P1;SDS_P2;PMS_P1;PMS_P2;Temp;Humidity;BMP_temperature;BMP_pressure;BME280_temperature;BME280_humidity;BME280_pressure;Samples;Min_cycle;Max_cycle;Signal;HPM_P1;HPM_P2
2022/01/24 00:02:26;;;;;;;15.18;12.43;;;5.60;99.90;;;;;;4958610;28;20039;-61
2022/01/24 00:04:52;;;;;;;15.68;12.50;;;5.50;99.90;;;;;;4941480;28;20078;-61
2022/01/24 00:07:21;;;;;;;17.35;12.98;;;5.50;99.90;;;;;;4960143;28;20082;-61
2022/01/24 00:09:48;;;;;;;17.75;13.45;;;5.60;99.90;;;;;;4952590;28;20046;-61
2022/01/24 00:12:24;;;;;;;16.48;13.07;;;5.60;99.90;;;;;;4952014;28;20047;-61
2022/01/24 00:15:03;;;;;;;14.57;12.50;;;5.50;99.90;;;;;;4953938;28;20097;-61
2022/01/24 00:17:39;;;;;;;14.93;12.15;;;5.60;99.90;;;;;;4960295;28;20493;-61
2022/01/24 00:28:06;;;;;;;16.67;13.88;;;5.60;99.90;;;;;;4939675;28;20059;-62
2022/01/24 00:30:33;;;;;;;15.27;13.38;;;5.50;99.90;;;;;;4950594;28;20050;-61
2022/01/24 00:32:59;;;;;;;14.88;12.38;;;5.50;99.90;;;;;;4939153;28;20192;-62
2022/01/24 00:35:25;;;;;;;17.95;14.75;;;5.50;99.90;;;;;;4959285;28;20047;-61
2022/01/24 00:37:51;;;;;;;16.73;14.10;;;5.50;99.90;;;;;;4952470;28;20062;-61
2022/01/24 00:40:17;;;;;;;16.15;13.00;;;5.50;99.90;;;;;;4961779;28;20054;-61
2022/01/24 00:55:48;;;;;;;16.23;12.30;;;5.50;99.90;;;;;;4934756;28;20380;-53
2022/01/24 00:58:15;;;;;;;18.20;11.98;;;5.50;99.90;;;;;;4951320;28;20134;-53
2022/01/24 01:00:42;;;;;;;15.85;12.73;;;5.50;99.90;;;;;;4933725;28;20502;-50
2022/01/24 01:03:08;;;;;;;17.90;14.43;;;5.50;99.90;;;;;;4946857;28;20509;-49
2022/01/24 01:05:59;;;;;;;16.42;14.20;;;5.50;99.90;;;;;;4970198;28;20055;-50
2022/01/24 01:19:03;;;;;;;17.00;13.90;;;5.40;99.90;;;;;;4960333;28;20669;-61
2022/01/24 01:21:30;;;;;;;16.02;12.75;;;5.40;99.90;;;;;;4936107;28;20399;-61
2022/01/24 01:23:58;;;;;;;20.02;14.38;;;5.50;99.90;;;;;;4952985;28;20142;-61
2022/01/24 01:26:37;;;;;;;16.92;13.88;;;5.40;99.90;;;;;;4932175;28;20070;-50
2022/01/24 01:29:13;;;;;;;17.52;13.07;;;5.40;99.90;;;;;;4932542;29;20386;-52
2022/01/24 01:32:18;;;;;;;20.35;13.40;;;5.40;99.90;;;;;;4960314;28;20501;-50
2022/01/24 01:35:41;;;;;;;16.83;13.98;;;5.40;99.90;;;;;;4958524;28;20408;-52
2022/01/24 01:54:21;;;;;;;17.63;14.48;;;5.30;99.90;;;;;;4960755;28;20055;-61
2022/01/24 01:56:47;;;;;;;20.90;16.77;;;5.30;99.90;;;;;;4955991;28;20051;-61
2022/01/24 01:59:13;;;;;;;20.75;16.33;;;5.30;99.90;;;;;;4953993;28;20047;-61
2022/01/24 02:01:39;;;;;;;20.33;15.90;;;5.30;99.90;;;;;;4942836;28;20096;-61
2022/01/24 02:04:05;;;;;;;20.75;16.30;;;5.30;99.90;;;;;;4966503;28;20043;-61
2022/01/24 02:06:32;;;;;;;23.05;16.73;;;5.30;99.90;;;;;;4956277;28;20050;-61
2022/01/24 02:09:07;;;;;;;21.58;16.92;;;5.30;99.90;;;;;;4959073;28;20691;-61
2022/01/24 02:11:33;;;;;;;22.15;17.63;;;5.30;99.90;;;;;;4962168;28;20035;-61
2022/01/24 02:14:04;;;;;;;22.45;17.30;;;5.30;99.90;;;;;;4960330;28;20047;-61
2022/01/24 02:16:51;;;;;;;22.35;17.88;;;5.30;99.90;;;;;;4972811;28;20057;-61
2022/01/24 02:19:49;;;;;;;21.77;17.52;;;5.30;99.90;;;;;;4952752;28;20089;-61
2022/01/24 02:24:59;;;;;;;25.67;19.73;;;5.30;99.90;;;;;;4961479;28;20046;-51
2022/01/24 02:27:28;;;;;;;21.25;17.88;;;5.30;99.90;;;;;;4951984;28;20055;-51
2022/01/24 02:30:10;;;;;;;22.33;17.40;;;5.30;99.90;;;;;;4959137;28;20070;-50
2022/01/24 02:32:38;;;;;;;24.23;19.00;;;5.30;99.90;;;;;;4953247;28;20484;-51
2022/01/24 02:35:05;;;;;;;22.60;18.08;;;5.30;99.90;;;;;;4934888;28;20442;-52
2022/01/24 02:37:32;;;;;;;23.05;19.05;;;5.40;99.90;;;;;;4949625;28;20486;-53
2022/01/24 02:40:08;;;;;;;21.85;19.02;;;5.40;99.90;;;;;;4970768;28;20058;-53
2022/01/24 02:48:27;;;;;;;24.73;19.80;;;5.40;99.90;;;;;;4975525;28;20053;-62
2022/01/24 02:53:32;;;;;;;24.42;21.10;;;5.40;99.90;;;;;;4946158;28;20046;-61
2022/01/24 02:55:59;;;;;;;25.20;20.58;;;5.40;99.90;;;;;;4966988;28;20212;-61
2022/01/24 02:58:25;;;;;;;23.63;19.85;;;5.40;99.90;;;;;;4948085;28;20043;-61
2022/01/24 03:00:52;;;;;;;26.80;21.48;;;5.40;99.90;;;;;;4988052;28;20075;-49
2022/01/24 03:03:19;;;;;;;25.65;21.08;;;5.40;99.90;;;;;;4958655;28;20082;-52
2022/01/24 03:05:45;;;;;;;24.60;19.65;;;5.30;99.90;;;;;;4955122;28;20512;-52
2022/01/24 03:08:13;;;;;;;25.10;20.95;;;5.30;99.90;;;;;;4953172;28;20078;-49
2022/01/24 03:10:43;;;;;;;22.77;18.98;;;5.30;99.90;;;;;;4954461;28;20047;-50
2022/01/24 03:15:38;;;;;;;26.48;20.92;;;5.30;99.90;;;;;;4987893;28;20046;-61
2022/01/24 03:18:05;;;;;;;27.38;20.92;;;5.30;99.90;;;;;;4952447;28;20462;-62
2022/01/24 03:20:32;;;;;;;24.88;20.40;;;5.40;99.90;;;;;;4973886;28;20043;-52
2022/01/24 03:22:58;;;;;;;26.80;20.50;;;5.30;99.90;;;;;;4940447;28;20062;-53
2022/01/24 03:25:24;;;;;;;22.85;18.40;;;5.40;99.90;;;;;;4941835;28;20040;-54
2022/01/24 03:27:50;;;;;;;23.95;18.48;;;5.30;99.90;;;;;;4952857;28;20055;-51
2022/01/24 03:30:16;;;;;;;25.77;20.75;;;5.30;99.90;;;;;;4957081;28;20146;-52
2022/01/24 03:32:42;;;;;;;24.50;20.88;;;5.30;99.90;;;;;;4962464;28;20061;-49
2022/01/24 03:35:09;;;;;;;21.35;18.33;;;5.30;99.90;;;;;;4955219;28;20139;-61
2022/01/24 03:37:36;;;;;;;23.92;19.38;;;5.30;99.90;;;;;;4943830;28;20127;-61
2022/01/24 03:40:04;;;;;;;25.02;19.92;;;5.30;99.90;;;;;;4981309;28;20544;-61
2022/01/24 03:42:30;;;;;;;26.90;20.95;;;5.30;99.90;;;;;;4963092;28;20045;-61
2022/01/24 03:45:00;;;;;;;26.90;22.23;;;5.30;99.90;;;;;;4960583;28;20055;-61
2022/01/24 03:50:00;;;;;;;28.80;21.75;;;5.30;99.90;;;;;;4918094;28;20054;-61
2022/01/24 03:52:30;;;;;;;26.40;21.55;;;5.30;99.90;;;;;;4965738;28;20534;-61
2022/01/24 03:54:57;;;;;;;25.10;21.10;;;5.20;99.90;;;;;;4964153;28;21935;-61
2022/01/24 03:57:24;;;;;;;26.80;21.13;;;5.30;99.90;;;;;;4952903;28;20100;-61
2022/01/24 03:59:51;;;;;;;24.77;21.23;;;5.30;99.90;;;;;;4955274;28;20038;-52
2022/01/24 04:02:19;;;;;;;22.80;19.77;;;5.20;99.90;;;;;;4953430;28;20057;-54
2022/01/24 04:04:45;;;;;;;24.52;20.05;;;5.20;99.90;;;;;;4953473;28;20061;-61
2022/01/24 04:07:11;;;;;;;25.55;20.20;;;5.20;99.90;;;;;;4966143;28;20389;-61
2022/01/24 04:09:40;;;;;;;23.02;19.98;;;5.20;99.90;;;;;;4933039;28;20050;-62
2022/01/24 04:12:08;;;;;;;24.20;19.85;;;5.20;99.90;;;;;;4981583;28;20498;-61
2022/01/24 04:22:18;;;;;;;25.85;20.58;;;5.10;99.90;;;;;;4971644;28;20043;-61
2022/01/24 04:24:46;;;;;;;20.85;17.23;;;5.20;99.90;;;;;;4936447;28;20054;-54
2022/01/24 04:27:13;;;;;;;19.30;16.25;;;5.20;99.90;;;;;;4951959;28;20498;-57
2022/01/24 04:29:40;;;;;;;19.90;16.80;;;5.20;99.90;;;;;;4971507;28;20051;-50
2022/01/24 04:32:06;;;;;;;20.90;17.90;;;5.20;99.90;;;;;;4961295;28;20077;-49
2022/01/24 04:34:32;;;;;;;22.52;17.75;;;5.20;99.90;;;;;;4954248;28;20096;-52
2022/01/24 04:36:59;;;;;;;20.85;17.23;;;5.20;99.90;;;;;;4953774;28;20051;-50
2022/01/24 04:39:25;;;;;;;20.48;17.58;;;5.10;99.90;;;;;;4971754;28;20051;-53
2022/01/24 04:41:54;;;;;;;23.23;18.92;;;5.10;99.90;;;;;;4953095;28;20097;-52
2022/01/24 04:47:26;;;;;;;20.90;17.48;;;5.10;99.90;;;;;;4957252;28;20039;-52
2022/01/24 04:52:48;;;;;;;22.70;17.98;;;5.10;99.90;;;;;;4952243;28;20474;-53
2022/01/24 04:55:14;;;;;;;17.60;15.43;;;5.10;99.90;;;;;;4954536;28;20051;-51
2022/01/24 04:57:40;;;;;;;19.05;16.45;;;5.20;99.90;;;;;;4963225;28;20563;-52
2022/01/24 05:00:10;;;;;;;20.42;17.52;;;5.10;99.90;;;;;;4968561;28;20055;-53
2022/01/24 05:02:36;;;;;;;22.88;18.00;;;5.10;99.90;;;;;;4947036;28;20051;-51
2022/01/24 05:05:02;;;;;;;22.27;17.05;;;5.10;99.90;;;;;;4963752;28;20082;-61
2022/01/24 05:07:28;;;;;;;20.17;16.13;;;5.10;99.90;;;;;;4957995;28;20050;-61
2022/01/24 05:10:06;;;;;;;19.52;15.90;;;5.10;99.90;;;;;;4960566;28;20494;-61
2022/01/24 05:23:34;;;;;;;19.98;16.60;;;5.10;99.90;;;;;;4948362;28;20142;-54
2022/01/24 05:26:03;;;;;;;23.45;17.67;;;5.10;99.90;;;;;;4954364;28;21095;-52
2022/01/24 05:28:30;;;;;;;18.90;15.70;;;5.10;99.90;;;;;;4953965;28;20155;-53
2022/01/24 05:30:58;;;;;;;20.30;15.68;;;5.10;99.90;;;;;;4924543;28;20108;-53
2022/01/24 05:33:25;;;;;;;22.98;17.17;;;5.10;99.90;;;;;;4953761;28;20058;-50
2022/01/24 05:35:51;;;;;;;21.80;17.73;;;5.10;99.90;;;;;;4973046;28;20043;-51
2022/01/24 05:38:17;;;;;;;23.95;18.30;;;5.10;99.90;;;;;;4950784;28;20061;-52
2022/01/24 05:40:45;;;;;;;21.38;17.85;;;5.10;99.90;;;;;;4959343;28;20077;-52
2022/01/24 05:43:11;;;;;;;22.60;18.38;;;5.10;99.90;;;;;;4966537;28;20468;-53
2022/01/24 05:45:37;;;;;;;20.58;16.85;;;5.10;99.90;;;;;;4957081;28;20055;-61
2022/01/24 05:48:04;;;;;;;20.65;17.83;;;5.10;99.90;;;;;;4956806;28;20116;-61
2022/01/24 05:50:30;;;;;;;21.67;17.48;;;5.10;99.90;;;;;;4971125;28;20494;-54
2022/01/24 05:52:56;;;;;;;21.92;17.77;;;5.10;99.90;;;;;;4959468;28;20116;-52
2022/01/24 05:55:23;;;;;;;21.67;17.73;;;5.10;99.90;;;;;;4965017;28;20035;-52
2022/01/24 05:57:49;;;;;;;20.67;17.77;;;5.10;99.90;;;;;;4963025;28;20402;-52
2022/01/24 06:00:15;;;;;;;21.52;17.48;;;5.10;99.90;;;;;;4954313;28;20475;-61
2022/01/24 06:02:41;;;;;;;21.15;17.33;;;5.20;99.90;;;;;;4953542;28;20096;-61
2022/01/24 06:05:08;;;;;;;21.75;18.80;;;5.10;99.90;;;;;;4958710;28;20043;-61
2022/01/24 06:07:34;;;;;;;24.65;20.27;;;5.10;99.90;;;;;;4956958;28;20051;-61
2022/01/24 06:10:00;;;;;;;28.17;22.73;;;5.20;99.90;;;;;;4975698;28;20089;-61
2022/01/24 06:12:27;;;;;;;27.38;21.92;;;5.20;99.90;;;;;;4985791;28;20314;-61
2022/01/24 06:14:53;;;;;;;35.33;26.88;;;5.20;99.90;;;;;;4953044;28;20061;-61
2022/01/24 06:17:19;;;;;;;38.83;27.23;;;5.20;99.90;;;;;;4961368;28;20062;-61
2022/01/24 06:19:45;;;;;;;42.45;31.20;;;5.10;99.90;;;;;;4964912;28;20046;-61
2022/01/24 06:22:12;;;;;;;42.28;32.40;;;5.10;99.90;;;;;;4931983;28;20542;-51
2022/01/24 06:24:38;;;;;;;44.33;31.60;;;5.20;99.90;;;;;;4946460;28;20043;-52
2022/01/24 06:27:04;;;;;;;41.90;32.53;;;5.20;99.90;;;;;;4959626;28;20059;-51
2022/01/24 06:29:31;;;;;;;44.28;30.60;;;5.20;99.90;;;;;;4958982;28;20070;-53
2022/01/24 06:31:57;;;;;;;43.90;31.95;;;5.20;99.90;;;;;;4961987;28;20051;-53
2022/01/24 06:34:23;;;;;;;42.85;29.95;;;5.20;99.90;;;;;;4960390;28;20043;-51
2022/01/24 06:36:49;;;;;;;37.22;29.55;;;5.20;99.90;;;;;;4964861;28;20135;-54
2022/01/24 06:39:15;;;;;;;36.47;27.30;;;5.20;99.90;;;;;;4952154;28;20109;-49
2022/01/24 06:41:43;;;;;;;36.28;27.55;;;5.20;99.90;;;;;;4940888;28;20042;-51
2022/01/24 06:44:09;;;;;;;38.35;27.52;;;5.10;99.90;;;;;;4958800;28;20073;-51
2022/01/24 06:46:36;;;;;;;40.22;30.20;;;5.20;99.90;;;;;;4985824;28;20035;-51
2022/01/24 06:49:02;;;;;;;37.95;27.58;;;5.10;99.90;;;;;;4997965;28;21017;-53
2022/01/24 06:51:28;;;;;;;37.45;27.98;;;5.10;99.90;;;;;;4966230;28;20051;-50
2022/01/24 06:53:54;;;;;;;39.95;28.67;;;5.10;99.90;;;;;;4954739;28;20050;-52
2022/01/24 06:56:21;;;;;;;44.50;32.42;;;5.10;99.90;;;;;;4970321;28;20047;-54
2022/01/24 06:58:47;;;;;;;40.20;30.08;;;5.10;99.90;;;;;;4933187;28;20054;-50
2022/01/24 07:01:13;;;;;;;51.35;33.13;;;5.10;99.90;;;;;;4960637;28;20038;-50
2022/01/24 07:03:39;;;;;;;50.85;33.88;;;5.10;99.90;;;;;;4930036;28;20098;-48
2022/01/24 07:06:05;;;;;;;51.40;35.92;;;5.10;99.90;;;;;;4954974;28;20082;-53
2022/01/24 07:08:31;;;;;;;47.92;34.20;;;5.10;99.90;;;;;;4971731;28;20075;-50
2022/01/24 07:10:58;;;;;;;50.00;34.60;;;5.10;99.90;;;;;;4966283;28;20050;-51
2022/01/24 07:13:24;;;;;;;51.13;36.47;;;5.10;99.90;;;;;;4968164;28;20097;-53
2022/01/24 07:15:59;;;;;;;49.30;35.38;;;5.10;99.90;;;;;;4956772;28;20047;-53
2022/01/24 07:21:03;;;;;;;52.92;36.00;;;5.10;99.90;;;;;;4970307;28;20114;-61
2022/01/24 07:23:29;;;;;;;47.63;33.63;;;5.10;99.90;;;;;;4999209;28;20040;-61
2022/01/24 07:25:55;;;;;;;49.67;34.42;;;5.10;99.90;;;;;;4998638;28;20043;-61
2022/01/24 07:28:22;;;;;;;48.88;33.13;;;5.10;99.90;;;;;;5011606;28;20058;-61
2022/01/24 07:30:49;;;;;;;51.75;36.08;;;5.10;99.90;;;;;;4989592;28;20046;-61
2022/01/24 07:33:15;;;;;;;54.63;36.30;;;5.10;99.90;;;;;;4975785;28;20054;-60
2022/01/24 07:35:44;;;;;;;50.00;36.83;;;5.10;99.90;;;;;;5017707;28;20493;-61
2022/01/24 07:38:11;;;;;;;52.88;36.90;;;5.10;99.90;;;;;;4990545;28;20102;-61
2022/01/24 07:40:41;;;;;;;53.13;38.22;;;5.10;99.90;;;;;;5015597;28;20047;-61
2022/01/24 07:43:12;;;;;;;62.72;43.35;;;5.10;99.90;;;;;;4962150;28;20086;-61
2022/01/24 07:45:45;;;;;;;66.97;43.40;;;5.10;99.90;;;;;;4943194;28;20043;-60
2022/01/24 07:48:13;;;;;;;65.72;44.40;;;5.10;99.90;;;;;;4975616;28;20303;-61
2022/01/24 07:50:42;;;;;;;65.85;42.83;;;5.10;99.90;;;;;;4964264;28;20054;-61
2022/01/24 07:53:09;;;;;;;69.13;47.22;;;5.10;99.90;;;;;;4922863;28;20082;-63
2022/01/24 07:55:36;;;;;;;71.72;46.92;;;5.10;99.90;;;;;;4979058;28;20577;-61
2022/01/24 07:58:02;;;;;;;65.68;46.17;;;5.10;99.90;;;;;;4962004;28;20052;-61
2022/01/24 08:00:29;;;;;;;74.63;48.80;;;5.10;99.90;;;;;;4979739;28;20635;-61
2022/01/24 08:02:57;;;;;;;73.68;49.60;;;5.20;99.90;;;;;;4948477;28;20066;-61
2022/01/24 08:05:24;;;;;;;76.55;53.30;;;5.20;99.90;;;;;;4967919;28;20604;-61
2022/01/24 08:07:50;;;;;;;77.28;54.08;;;5.20;99.90;;;;;;4948437;28;20047;-61
2022/01/24 08:10:17;;;;;;;80.65;54.83;;;5.20;99.90;;;;;;4984567;28;20537;-61
2022/01/24 08:12:44;;;;;;;82.05;55.28;;;5.20;99.90;;;;;;4968730;28;20517;-61
2022/01/24 08:15:14;;;;;;;72.90;52.95;;;5.20;99.90;;;;;;4967421;28;20050;-61
2022/01/24 08:17:42;;;;;;;71.72;52.50;;;5.20;99.90;;;;;;4923951;28;20483;-61
2022/01/24 08:20:09;;;;;;;80.30;56.95;;;5.20;99.90;;;;;;4973169;28;20039;-61
2022/01/24 08:22:35;;;;;;;79.40;54.08;;;5.30;99.90;;;;;;4956609;28;20126;-61
2022/01/24 08:25:04;;;;;;;79.93;55.55;;;5.20;99.90;;;;;;4945760;28;20223;-60
2022/01/24 08:27:35;;;;;;;83.20;56.38;;;5.30;99.90;;;;;;4967066;28;20050;-61
2022/01/24 08:30:05;;;;;;;80.78;56.65;;;5.30;99.90;;;;;;4957579;28;20054;-59
2022/01/24 08:32:31;;;;;;;82.32;57.97;;;5.20;99.90;;;;;;4958830;28;20136;-61
2022/01/24 08:34:58;;;;;;;83.07;57.22;;;5.30;99.90;;;;;;4976338;28;20039;-61
2022/01/24 08:37:24;;;;;;;77.80;54.42;;;5.30;99.90;;;;;;4957214;28;20046;-62
2022/01/24 08:39:51;;;;;;;78.85;53.95;;;5.30;99.90;;;;;;4991224;28;20548;-61
2022/01/24 08:42:29;;;;;;;78.07;52.88;;;5.30;99.90;;;;;;4961846;28;20047;-61
2022/01/24 08:47:23;;;;;;;79.00;55.00;;;5.30;99.90;;;;;;4946244;28;20051;-61
2022/01/24 08:49:51;;;;;;;82.00;53.42;;;5.30;99.90;;;;;;4951627;28;20051;-61
2022/01/24 08:52:17;;;;;;;77.97;54.80;;;5.30;99.90;;;;;;4945520;28;20040;-60
2022/01/24 08:54:44;;;;;;;73.07;52.35;;;5.40;99.90;;;;;;4946976;28;20484;-61
2022/01/24 08:57:10;;;;;;;71.82;51.70;;;5.40;99.90;;;;;;4960366;28;20051;-61
2022/01/24 08:59:38;;;;;;;75.30;52.00;;;5.40;99.90;;;;;;4947346;28;20130;-61
2022/01/24 09:02:05;;;;;;;73.95;52.85;;;5.40;99.90;;;;;;4943846;28;20447;-62
2022/01/24 09:04:31;;;;;;;76.22;55.50;;;5.40;99.90;;;;;;4942734;28;20055;-61
2022/01/24 09:07:02;;;;;;;76.00;53.80;;;5.40;99.90;;;;;;4967586;28;20047;-61
2022/01/24 09:09:28;;;;;;;72.30;51.80;;;5.40;99.90;;;;;;4946114;28;20048;-61
2022/01/24 09:11:54;;;;;;;73.00;50.33;;;5.40;99.90;;;;;;4938121;28;20525;-61
2022/01/24 09:14:21;;;;;;;74.95;52.65;;;5.40;99.90;;;;;;4939819;28;20055;-61
2022/01/24 09:16:47;;;;;;;80.95;53.97;;;5.50;99.90;;;;;;4944507;28;20050;-61
2022/01/24 09:19:13;;;;;;;77.72;55.22;;;5.50;99.90;;;;;;4947967;28;20065;-61
2022/01/24 09:21:39;;;;;;;82.15;55.53;;;5.50;99.90;;;;;;4974881;28;20051;-61
2022/01/24 09:24:06;;;;;;;82.43;55.10;;;5.50;99.90;;;;;;4944799;28;20364;-59
2022/01/24 09:26:33;;;;;;;82.82;55.17;;;5.50;99.90;;;;;;4945165;28;20101;-61
2022/01/24 09:28:59;;;;;;;74.78;54.63;;;5.50;99.90;;;;;;4982205;28;20054;-61
2022/01/24 09:31:25;;;;;;;80.65;56.25;;;5.60;99.90;;;;;;4936460;28;20146;-52
2022/01/24 09:33:53;;;;;;;73.68;51.58;;;5.50;99.90;;;;;;4944247;28;20051;-54
2022/01/24 09:36:19;;;;;;;74.70;50.42;;;5.50;99.90;;;;;;4944252;28;20054;-61
2022/01/24 09:38:46;;;;;;;73.55;53.30;;;5.50;99.90;;;;;;4949399;28;20102;-53
2022/01/24 09:41:13;;;;;;;70.07;49.58;;;5.60;99.90;;;;;;4946144;28;20410;-50
2022/01/24 09:43:40;;;;;;;73.68;51.05;;;5.60;99.90;;;;;;4948645;28;20053;-53
2022/01/24 09:46:08;;;;;;;69.47;50.30;;;5.60;99.90;;;;;;4961713;28;20082;-61
2022/01/24 09:48:34;;;;;;;69.25;51.83;;;5.60;99.90;;;;;;4970925;28;20490;-52
2022/01/24 09:51:00;;;;;;;71.72;52.55;;;5.60;99.90;;;;;;4980626;28;20047;-49
2022/01/24 09:53:27;;;;;;;75.05;52.63;;;5.60;99.90;;;;;;4959088;28;20465;-50
2022/01/24 09:55:53;;;;;;;69.43;50.80;;;5.60;99.90;;;;;;4977313;28;20054;-61
2022/01/24 09:58:20;;;;;;;69.68;50.55;;;5.60;99.90;;;;;;4951643;28;20047;-61
2022/01/24 10:00:47;;;;;;;73.55;51.25;;;5.60;99.90;;;;;;4958301;28;20061;-52
2022/01/24 10:03:13;;;;;;;70.60;50.10;;;5.60;99.90;;;;;;4964065;28;20051;-61
2022/01/24 10:05:42;;;;;;;71.82;51.25;;;5.60;99.90;;;;;;4948447;28;20047;-52
2022/01/24 10:08:14;;;;;;;69.53;48.78;;;5.60;99.90;;;;;;4957711;28;20145;-61
2022/01/24 10:10:53;;;;;;;70.75;50.90;;;5.60;99.90;;;;;;4961545;28;20051;-53
2022/01/24 10:16:43;;;;;;;65.45;47.72;;;5.60;99.90;;;;;;4946181;28;20062;-49
2022/01/24 10:19:16;;;;;;;68.72;49.63;;;5.60;99.90;;;;;;4943997;28;20410;-52
2022/01/24 10:21:48;;;;;;;70.32;49.20;;;5.60;99.90;;;;;;4958337;28;20039;-53
2022/01/24 10:24:26;;;;;;;;;;;5.60;99.90;;;;;;4964163;28;20039;-59
2022/01/24 10:27:15;;;;;;;71.30;49.10;;;5.80;99.90;;;;;;4962169;28;20401;-60
2022/01/24 10:29:47;;;;;;;68.68;46.72;;;5.70;99.90;;;;;;4967438;28;20062;-61
2022/01/24 10:32:28;;;;;;;;;;;5.70;99.90;;;;;;4997926;28;20508;-60
2022/01/24 10:34:55;;;;;;;69.28;47.92;;;5.70;99.90;;;;;;4983491;28;20414;-53
2022/01/24 10:37:23;;;;;;;73.07;50.03;;;5.60;99.90;;;;;;4967771;28;20481;-54
2022/01/24 10:40:05;;;;;;;66.82;47.45;;;5.60;99.90;;;;;;4965445;28;20051;-53
2022/01/24 10:42:42;;;;;;;71.18;49.42;;;5.60;99.90;;;;;;5005883;28;20075;-52
2022/01/24 10:45:17;;;;;;;71.55;48.50;;;5.60;99.90;;;;;;4965434;28;20055;-52
2022/01/24 10:47:48;;;;;;;67.13;47.10;;;5.60;99.90;;;;;;4947091;28;20042;-52
2022/01/24 10:50:30;;;;;;;87.22;58.28;;;5.60;99.90;;;;;;4955038;28;20098;-52
2022/01/24 10:52:57;;;;;;;70.75;49.42;;;5.70;99.90;;;;;;4957695;28;20801;-51
2022/01/24 10:55:28;;;;;;;70.57;50.08;;;5.70;99.90;;;;;;4960575;28;20038;-51
2022/01/24 10:58:09;;;;;;;70.30;49.67;;;5.70;99.90;;;;;;4972185;28;20055;-51
2022/01/24 11:00:37;;;;;;;72.72;51.35;;;5.70;99.90;;;;;;4971031;28;20046;-54
2022/01/24 11:03:06;;;;;;;72.82;50.10;;;5.70;99.90;;;;;;4957030;28;20046;-52
2022/01/24 11:05:38;;;;;;;68.00;49.30;;;5.70;99.90;;;;;;4956661;28;20093;-50
2022/01/24 11:08:11;;;;;;;;;;;5.70;99.90;;;;;;4960887;28;20502;-55
2022/01/24 11:10:43;;;;;;;74.47;49.35;;;5.70;99.90;;;;;;4972862;28;19934;-54
2022/01/24 11:13:11;;;;;;;63.60;45.13;;;5.70;99.90;;;;;;4946826;28;20101;-53
2022/01/24 11:15:42;;;;;;;60.58;44.55;;;5.70;99.90;;;;;;4957773;28;20112;-53
2022/01/24 11:18:14;;;;;;;54.42;41.72;;;5.70;99.90;;;;;;4974528;28;20053;-55
2022/01/24 11:20:44;;;;;;;52.47;40.20;;;5.60;99.90;;;;;;4955520;28;20124;-54
2022/01/24 11:23:11;;;;;;;50.60;39.00;;;5.60;99.90;;;;;;4968947;28;20058;-53
2022/01/24 11:25:42;;;;;;;51.70;40.55;;;5.60;99.90;;;;;;4940210;28;20517;-61
2022/01/24 11:28:09;;;;;;;53.67;40.85;;;5.50;99.90;;;;;;4959071;28;20584;-53
2022/01/24 11:30:38;;;;;;;50.35;38.10;;;5.60;99.90;;;;;;4955942;28;20612;-52
2022/01/24 11:33:19;;;;;;;49.75;40.35;;;5.60;99.90;;;;;;4963269;28;20050;-52
2022/01/24 11:35:51;;;;;;;49.60;38.53;;;5.50;99.90;;;;;;4957118;28;20047;-54
2022/01/24 11:38:31;;;;;;;;;;;5.50;99.90;;;;;;4956285;28;20145;-63
2022/01/24 11:41:05;;;;;;;49.28;38.05;;;5.50;99.90;;;;;;4960230;28;20020;-62
2022/01/24 11:43:40;;;;;;;46.85;37.75;;;5.50;99.90;;;;;;4959510;28;20103;-61
2022/01/24 11:46:48;;;;;;;49.15;37.35;;;5.50;99.90;;;;;;4947649;28;20079;-55
2022/01/24 11:49:18;;;;;;;45.00;36.20;;;5.50;99.90;;;;;;4980566;28;20457;-54
2022/01/24 11:51:49;;;;;;;45.35;37.92;;;5.50;99.90;;;;;;4965838;28;20058;-54
2022/01/24 11:57:27;;;;;;;48.78;40.33;;;5.50;99.90;;;;;;4994826;28;20131;-62
2022/01/24 12:00:17;;;;;;;47.70;38.80;;;5.60;99.90;;;;;;4996564;28;20054;-62
2022/01/24 12:02:56;;;;;;;45.42;36.17;;;5.60;99.90;;;;;;4993501;28;20685;-61
2022/01/24 12:05:44;;;;;;;44.75;38.75;;;5.60;99.90;;;;;;4980861;28;20054;-62
2022/01/24 12:08:21;;;;;;;44.58;37.47;;;5.60;99.90;;;;;;4977930;28;20047;-62
2022/01/24 12:10:48;;;;;;;45.85;36.67;;;5.60;99.90;;;;;;4986542;28;20047;-61
2022/01/24 12:13:36;;;;;;;47.78;38.33;;;5.60;99.90;;;;;;5006949;28;20093;-61
2022/01/24 12:16:10;;;;;;;43.80;36.42;;;5.60;99.90;;;;;;4982224;28;20093;-61
2022/01/24 12:18:36;;;;;;;46.05;38.30;;;5.60;99.90;;;;;;4984801;28;20661;-61
2022/01/24 12:21:05;;;;;;;49.60;38.70;;;5.60;99.90;;;;;;4980053;28;20040;-62
2022/01/24 12:23:40;;;;;;;43.95;36.70;;;5.60;99.90;;;;;;4980043;28;20444;-61
2022/01/24 12:26:12;;;;;;;48.50;39.63;;;5.60;99.90;;;;;;4954383;28;20125;-61
2022/01/24 12:28:42;;;;;;;;;;;5.60;99.90;;;;;;4957412;28;20526;-61
2022/01/24 12:31:21;;;;;;;46.55;38.42;;;5.70;99.90;;;;;;4980893;28;19922;-61
2022/01/24 12:33:53;;;;;;;58.30;41.85;;;5.60;99.90;;;;;;4974759;28;20126;-61
2022/01/24 12:36:47;;;;;;;57.78;42.75;;;5.60;99.90;;;;;;4955589;28;20531;-61
2022/01/24 12:39:37;;;;;;;59.10;43.92;;;5.60;99.90;;;;;;4972153;28;20082;-61
2022/01/24 12:47:39;;;;;;;55.50;40.63;;;5.70;99.90;;;;;;4937951;28;20097;-62
2022/01/24 12:50:08;;;;;;;46.75;38.17;;;5.60;99.90;;;;;;4956281;28;20339;-62
2022/01/24 12:52:35;;;;;;;46.72;37.47;;;5.60;99.90;;;;;;4914104;28;20496;-61
2022/01/24 12:55:01;;;;;;;44.42;37.50;;;5.60;99.90;;;;;;4955987;28;20151;-61
2022/01/24 12:57:37;;;;;;;43.90;37.65;;;5.60;99.90;;;;;;4944044;28;20446;-61
2022/01/24 13:00:09;;;;;;;48.03;39.28;;;5.60;99.90;;;;;;4968018;28;20596;-55
2022/01/24 13:02:39;;;;;;;46.45;38.13;;;5.60;99.90;;;;;;5007863;28;20502;-54
2022/01/24 13:05:20;;;;;;;48.60;39.67;;;5.60;99.90;;;;;;4939547;28;20072;-52
2022/01/24 13:07:55;;;;;;;51.20;41.00;;;5.60;99.90;;;;;;4961841;28;20475;-55
2022/01/24 13:10:30;;;;;;;42.72;36.40;;;5.60;99.90;;;;;;4954622;28;20181;-55
2022/01/24 13:13:06;;;;;;;43.22;36.03;;;5.50;99.90;;;;;;4955326;28;20620;-55
2022/01/24 13:21:24;;;;;;;42.95;38.35;;;5.60;99.90;;;;;;4954312;28;20043;-54
2022/01/24 13:24:00;;;;;;;49.80;39.20;;;5.60;99.90;;;;;;4960050;28;20063;-53
2022/01/24 13:26:27;;;;;;;48.90;40.55;;;5.50;99.90;;;;;;4951211;28;20540;-53
2022/01/24 13:29:04;;;;;;;50.10;42.88;;;5.60;99.90;;;;;;4970211;28;20154;-61
2022/01/24 13:31:30;;;;;;;42.72;38.13;;;5.60;99.90;;;;;;4978477;28;20055;-61
2022/01/24 13:33:57;;;;;;;40.60;36.20;;;5.60;99.90;;;;;;4973568;28;20067;-61
2022/01/24 13:36:24;;;;;;;41.00;36.70;;;5.50;99.90;;;;;;4980369;28;20104;-61
2022/01/24 13:38:51;;;;;;;41.33;37.13;;;5.50;99.90;;;;;;4975110;28;20054;-60
2022/01/24 13:41:20;;;;;;;38.75;34.67;;;5.50;99.90;;;;;;4979508;28;20433;-61
2022/01/24 13:43:54;;;;;;;37.15;33.40;;;5.40;99.90;;;;;;4976530;28;20054;-61
2022/01/24 13:46:20;;;;;;;38.97;34.95;;;5.40;99.90;;;;;;4982982;28;20043;-63
2022/01/24 13:48:51;;;;;;;37.90;34.13;;;5.40;99.90;;;;;;4973943;28;20129;-61
2022/01/24 13:51:20;;;;;;;38.60;34.60;;;5.40;99.90;;;;;;4967966;28;20042;-61
2022/01/24 13:53:53;;;;;;;41.78;37.38;;;5.40;99.90;;;;;;4962622;28;20136;-61
2022/01/24 13:56:29;;;;;;;38.40;34.50;;;5.40;99.90;;;;;;4962448;28;20051;-61
2022/01/24 13:59:08;;;;;;;38.85;34.85;;;5.40;99.90;;;;;;4954142;28;20074;-62
2022/01/24 14:01:37;;;;;;;33.17;29.80;;;5.40;99.90;;;;;;4963719;28;20042;-61
2022/01/24 14:04:06;;;;;;;38.22;34.22;;;5.30;99.90;;;;;;4967310;28;20535;-64
2022/01/24 14:06:34;;;;;;;35.70;31.98;;;5.30;99.90;;;;;;4943718;28;20047;-62
2022/01/24 14:09:11;;;;;;;34.63;31.00;;;5.30;99.90;;;;;;4960640;28;20168;-62
2022/01/24 14:11:46;;;;;;;35.42;31.77;;;5.20;99.90;;;;;;4961484;28;20247;-61
2022/01/24 14:14:18;;;;;;;37.10;32.08;;;5.20;99.90;;;;;;4969974;28;20051;-62
2022/01/24 14:19:31;;;;;;;34.05;30.55;;;5.20;99.90;;;;;;4980140;28;20043;-61
2022/01/24 14:22:09;;;;;;;32.88;29.60;;;5.20;99.90;;;;;;4941790;28;20047;-62
2022/01/24 14:24:54;;;;;;;34.88;31.38;;;5.20;99.90;;;;;;4969560;28;20041;-62
2022/01/24 14:27:41;;;;;;;34.85;31.25;;;5.20;99.90;;;;;;4977088;28;20084;-62
2022/01/24 14:30:20;;;;;;;37.53;33.65;;;5.20;99.90;;;;;;4970640;28;20077;-62
2022/01/24 14:33:16;;;;;;;38.42;34.33;;;5.20;99.90;;;;;;4975526;28;20050;-62
2022/01/24 14:35:56;;;;;;;35.58;31.92;;;5.20;99.90;;;;;;4970349;28;20036;-62
2022/01/24 14:38:38;;;;;;;35.15;31.45;;;5.20;99.90;;;;;;4977603;28;20059;-62
2022/01/24 14:41:15;;;;;;;35.90;32.05;;;5.20;99.90;;;;;;4962255;28;20324;-62
2022/01/24 14:46:33;;;;;;;35.47;31.77;;;5.20;99.90;;;;;;4960430;28;20135;-62
2022/01/24 14:49:03;;;;;;;38.23;32.13;;;5.20;99.90;;;;;;4979409;28;20506;-62
2022/01/24 14:51:32;;;;;;;35.35;31.63;;;5.10;99.90;;;;;;4966078;28;20062;-62